createdAt,value
2023-10-09T00:02:11.357Z,1.10
2023-10-09T00:04:42.842Z,1.38
2023-10-09T00:07:11.651Z,1.17
2023-10-09T00:09:48.959Z,1.40
2023-10-09T00:12:17.713Z,1.27
2023-10-09T00:14:49.598Z,1.25
2023-10-09T00:17:22.830Z,1.17
2023-10-09T00:19:56.169Z,1.15
2023-10-09T00:22:26.069Z,1.10
2023-10-09T00:25:11.451Z,0.95
2023-10-09T00:27:43.738Z,0.90
2023-10-09T00:30:16.857Z,1.30
2023-10-09T00:32:51.987Z,1.20
2023-10-09T00:35:38.607Z,1.33
2023-10-09T00:38:27.183Z,1.60
2023-10-09T00:41:23.671Z,1.30
2023-10-09T00:43:54.340Z,1.67
2023-10-09T00:46:23.214Z,1.23
2023-10-09T00:48:53.248Z,1.27
2023-10-09T00:51:23.173Z,1.33
2023-10-09T00:53:54.194Z,1.40
2023-10-09T00:56:26.435Z,1.15
2023-10-09T00:59:01.816Z,0.90
2023-10-09T01:01:41.635Z,1.25
2023-10-09T01:04:11.941Z,1.13
2023-10-09T01:06:45.832Z,1.35
2023-10-09T01:09:15.661Z,1.17
2023-10-09T01:11:49.844Z,0.90
2023-10-09T01:14:17.849Z,0.98
2023-10-09T01:16:45.521Z,0.90
2023-10-09T01:19:22.199Z,0.98
2023-10-09T01:21:49.452Z,0.82
2023-10-09T01:24:17.863Z,1.00
2023-10-09T01:26:48.104Z,1.10
2023-10-09T01:29:18.873Z,0.90
2023-10-09T01:31:52.707Z,1.60
2023-10-09T01:34:47.743Z,1.00
2023-10-09T01:37:37.025Z,1.08
2023-10-09T01:40:22.945Z,0.88
2023-10-09T01:42:50.645Z,0.98
2023-10-09T01:45:21.011Z,1.10
2023-10-09T01:47:56.407Z,1.02
2023-10-09T01:50:32.371Z,0.98
2023-10-09T01:53:03.416Z,0.90
2023-10-09T01:55:46.947Z,0.90
2023-10-09T01:58:29.047Z,0.80
2023-10-09T02:01:03.223Z,1.00
2023-10-09T02:03:31.085Z,0.88
2023-10-09T02:06:01.693Z,0.75
2023-10-09T02:08:36.995Z,0.90
2023-10-09T02:11:04.554Z,0.73
2023-10-09T02:13:32.922Z,0.95
2023-10-09T02:16:14.157Z,0.77
2023-10-09T02:18:43.153Z,1.20
2023-10-09T02:21:10.606Z,0.73
2023-10-09T02:23:40.297Z,0.88
2023-10-09T02:26:18.413Z,0.70
2023-10-09T02:28:50.036Z,0.90
2023-10-09T02:31:23.366Z,0.95
2023-10-09T02:33:55.829Z,0.57
2023-10-09T02:36:23.933Z,0.88
2023-10-09T02:38:54.675Z,0.95
2023-10-09T02:41:22.017Z,0.90
2023-10-09T02:43:56.482Z,1.02
2023-10-09T02:46:30.914Z,0.98
2023-10-09T02:49:07.626Z,1.00
2023-10-09T02:51:35.154Z,1.08
2023-10-09T02:54:28.973Z,0.60
2023-10-09T02:56:56.272Z,0.93
2023-10-09T02:59:24.274Z,0.77
2023-10-09T03:01:54.518Z,0.70
2023-10-09T03:04:25.345Z,1.13
2023-10-09T03:06:58.428Z,0.90
2023-10-09T03:09:28.600Z,0.88
2023-10-09T03:12:04.065Z,0.90
2023-10-09T03:14:33.323Z,1.02
2023-10-09T03:17:01.706Z,0.77
2023-10-09T03:19:31.482Z,0.60
2023-10-09T03:22:02.256Z,1.05
2023-10-09T03:24:29.299Z,0.63
2023-10-09T03:27:04.531Z,0.88
2023-10-09T03:29:31.822Z,0.90
2023-10-09T03:32:01.414Z,0.73
2023-10-09T03:34:29.453Z,0.77
2023-10-09T03:37:05.405Z,0.70
2023-10-09T03:39:40.246Z,1.13
2023-10-09T03:42:13.031Z,0.70
2023-10-09T03:44:45.779Z,1.02
2023-10-09T03:47:13.278Z,0.75
2023-10-09T03:49:40.726Z,0.88
2023-10-09T03:52:10.706Z,0.65
2023-10-09T03:54:39.522Z,1.05
2023-10-09T03:57:10.786Z,0.80
2023-10-09T03:59:38.652Z,0.98
2023-10-09T04:02:08.752Z,0.73
2023-10-09T04:04:35.925Z,1.17
2023-10-09T04:07:08.015Z,0.90
2023-10-09T04:09:41.052Z,1.00
2023-10-09T04:12:08.296Z,0.80
2023-10-09T04:14:35.439Z,0.55
2023-10-09T04:17:25.452Z,1.05
2023-10-09T04:20:11.439Z,0.90
2023-10-09T04:22:57.857Z,0.70
2023-10-09T04:25:28.165Z,0.77
2023-10-09T04:28:11.408Z,0.80
2023-10-09T04:30:44.705Z,0.75
2023-10-09T04:33:29.833Z,1.10
2023-10-09T04:36:18.765Z,1.02
2023-10-09T04:38:57.439Z,0.70
2023-10-09T04:41:34.011Z,0.73
2023-10-09T04:44:19.710Z,1.05
2023-10-09T04:47:07.374Z,0.90
2023-10-09T04:49:57.580Z,0.88
2023-10-09T04:52:30.545Z,0.98
2023-10-09T04:55:18.683Z,0.70
2023-10-09T04:58:08.156Z,0.80
2023-10-09T05:00:41.732Z,1.00
2023-10-09T05:03:28.561Z,0.90
2023-10-09T05:06:21.687Z,0.80
2023-10-09T05:08:55.759Z,0.82
2023-10-09T05:11:44.030Z,0.80
2023-10-09T05:14:13.750Z,1.20
2023-10-09T05:16:55.601Z,1.02
2023-10-09T05:19:42.249Z,1.83
2023-10-09T05:22:31.507Z,1.70
2023-10-09T05:24:59.884Z,0.90
2023-10-09T05:27:45.775Z,0.80
2023-10-09T05:30:28.416Z,1.08
2023-10-09T05:33:00.632Z,0.70
2023-10-09T05:35:48.319Z,0.95
2023-10-09T05:38:25.155Z,1.05
2023-10-09T05:41:06.128Z,0.77
2023-10-09T05:43:51.830Z,1.42
2023-10-09T05:46:18.838Z,1.00
2023-10-09T05:48:56.129Z,1.02
2023-10-09T05:51:41.831Z,1.10
2023-10-09T05:54:27.786Z,0.60
2023-10-09T05:57:15.111Z,1.10
2023-10-09T06:00:02.170Z,0.80
2023-10-09T06:02:59.563Z,0.90
2023-10-09T06:06:04.899Z,0.73
2023-10-09T06:08:41.604Z,0.70
2023-10-09T06:11:28.218Z,0.77
2023-10-09T06:14:05.584Z,0.82
2023-10-09T06:17:01.333Z,0.80
2023-10-09T06:19:28.704Z,0.95
2023-10-09T06:22:16.203Z,0.95
2023-10-09T06:24:43.599Z,0.70
2023-10-09T06:27:11.965Z,0.93
2023-10-09T06:29:49.801Z,0.68
2023-10-09T06:32:20.890Z,0.80
2023-10-09T06:34:53.243Z,1.00
2023-10-09T06:37:26.426Z,0.63
2023-10-09T06:39:57.489Z,0.70
2023-10-09T06:42:35.018Z,0.95
2023-10-09T06:45:07.421Z,1.27
2023-10-09T06:47:57.530Z,1.40
2023-10-09T06:50:48.398Z,0.77
2023-10-09T06:53:16.037Z,1.80
2023-10-09T06:55:50.000Z,5.07
2023-10-09T06:58:24.471Z,2.35
2023-10-09T07:01:01.035Z,1.70
2023-10-09T07:03:34.208Z,3.28
2023-10-09T07:06:25.196Z,4.13
2023-10-09T07:09:08.429Z,2.90
2023-10-09T07:11:42.879Z,1.45
2023-10-09T07:14:34.043Z,2.67
2023-10-09T07:17:29.736Z,2.10
2023-10-09T07:19:56.797Z,1.40
2023-10-09T07:22:30.816Z,3.50
2023-10-09T07:24:59.234Z,3.38
2023-10-09T07:27:46.164Z,2.42
2023-10-09T07:30:30.337Z,2.28
2023-10-09T07:33:12.159Z,2.50
2023-10-09T07:35:44.839Z,2.00
2023-10-09T07:38:15.537Z,2.15
2023-10-09T07:41:21.160Z,2.50
2023-10-09T07:43:48.619Z,2.17
2023-10-09T07:46:53.656Z,2.58
2023-10-09T07:49:26.843Z,3.05
2023-10-09T07:51:54.101Z,2.80
2023-10-09T07:54:34.093Z,1.90
2023-10-09T07:57:10.309Z,2.05
2023-10-09T07:59:42.633Z,1.80
2023-10-09T08:02:18.701Z,2.08
2023-10-09T08:04:54.600Z,1.58
2023-10-09T08:08:04.701Z,1.50
2023-10-09T08:10:15.353Z,1.13
2023-10-09T08:12:59.379Z,1.00
2023-10-09T08:15:52.959Z,1.17
2023-10-09T08:18:29.259Z,1.10
2023-10-09T08:20:59.367Z,1.08
2023-10-09T08:23:49.226Z,0.90
2023-10-09T08:26:31.631Z,1.00
2023-10-09T08:29:17.340Z,1.10
2023-10-09T08:31:47.703Z,1.23
2023-10-09T08:36:58.465Z,1.25
2023-10-09T08:39:28.757Z,1.15
2023-10-09T08:42:00.058Z,1.20
2023-10-09T08:44:33.107Z,1.10
2023-10-09T08:47:01.477Z,1.10
2023-10-09T08:49:29.193Z,1.35
2023-10-09T08:51:57.872Z,1.27
2023-10-09T08:54:24.987Z,1.10
2023-10-09T08:56:52.243Z,1.40
2023-10-09T08:59:23.378Z,1.23
2023-10-09T09:01:53.657Z,1.10
2023-10-09T09:04:41.712Z,1.02
2023-10-09T09:07:25.617Z,0.93
2023-10-09T09:10:05.173Z,1.02
2023-10-09T09:12:38.949Z,1.48
2023-10-09T09:15:27.997Z,0.77
2023-10-09T09:18:10.175Z,1.42
2023-10-09T09:20:41.287Z,1.05
2023-10-09T09:23:13.581Z,1.00
2023-10-09T09:26:00.738Z,1.35
2023-10-09T09:28:34.323Z,1.30
2023-10-09T09:31:14.928Z,1.00
2023-10-09T09:33:45.632Z,1.03
2023-10-09T09:36:13.760Z,1.40
2023-10-09T09:38:43.700Z,0.68
2023-10-09T09:41:12.461Z,0.82
2023-10-09T09:43:47.598Z,0.60
2023-10-09T09:46:16.997Z,0.75
2023-10-09T09:48:48.629Z,0.75
2023-10-09T09:51:18.705Z,0.65
2023-10-09T09:53:51.088Z,0.57
2023-10-09T09:56:25.792Z,0.70
2023-10-09T09:59:03.275Z,0.88
2023-10-09T10:01:36.342Z,0.80
2023-10-09T10:04:13.278Z,0.60
2023-10-09T10:06:42.598Z,0.90
2023-10-09T10:09:10.900Z,1.08
2023-10-09T10:11:53.582Z,0.80
2023-10-09T10:14:30.320Z,0.80
2023-10-09T10:17:28.736Z,0.82
2023-10-09T10:20:01.471Z,0.95
2023-10-09T10:22:31.914Z,0.77
2023-10-09T10:25:03.864Z,0.90
2023-10-09T10:27:32.002Z,0.80
2023-10-09T10:30:14.331Z,0.80
2023-10-09T10:32:53.759Z,0.70
2023-10-09T10:35:33.691Z,0.80
2023-10-09T10:38:15.929Z,0.80
2023-10-09T10:40:47.575Z,0.70
2023-10-09T10:43:34.327Z,0.70
2023-10-09T10:46:16.542Z,0.40
2023-10-09T10:48:50.810Z,0.80
2023-10-09T10:51:23.301Z,0.55
2023-10-09T10:54:15.056Z,0.60
2023-10-09T10:59:30.431Z,0.70
2023-10-09T11:02:04.478Z,0.52
2023-10-09T11:04:34.836Z,0.60
2023-10-09T11:07:17.657Z,0.65
2023-10-09T11:10:00.426Z,0.68
2023-10-09T11:12:45.767Z,0.50
2023-10-09T11:15:38.826Z,0.68
2023-10-09T11:18:26.188Z,0.57
2023-10-09T11:21:00.305Z,0.68
2023-10-09T11:23:39.676Z,0.68
2023-10-09T11:26:29.598Z,0.77
2023-10-09T11:29:24.617Z,0.52
2023-10-09T11:32:10.716Z,0.50
2023-10-09T11:34:38.666Z,0.70
2023-10-09T11:37:18.775Z,0.60
2023-10-09T11:39:58.009Z,0.73
2023-10-09T11:42:50.562Z,0.90
2023-10-09T11:48:01.403Z,0.70
2023-10-09T11:51:10.786Z,0.50
2023-10-09T11:53:47.436Z,0.70
2023-10-09T11:56:18.156Z,1.10
2023-10-09T11:58:45.231Z,0.73
2023-10-09T12:01:24.092Z,0.70
2023-10-09T12:03:52.168Z,0.80
2023-10-09T12:06:23.612Z,0.65
2023-10-09T12:08:55.022Z,0.80
2023-10-09T12:11:30.262Z,0.80
2023-10-09T12:14:01.958Z,0.75
2023-10-09T12:18:57.870Z,0.70
2023-10-09T12:21:25.410Z,0.70
2023-10-09T12:23:52.509Z,0.70
2023-10-09T12:26:20.399Z,0.60
2023-10-09T12:28:47.994Z,0.80
2023-10-09T12:31:16.266Z,0.80
2023-10-09T12:33:47.720Z,0.82
2023-10-09T12:38:54.528Z,0.60
2023-10-09T12:41:28.189Z,0.60
2023-10-09T12:43:56.527Z,0.65
2023-10-09T12:46:26.958Z,0.45
2023-10-09T12:48:55.883Z,0.63
2023-10-09T12:51:31.578Z,0.47
2023-10-09T12:53:58.779Z,0.55
2023-10-09T12:56:34.209Z,0.70
2023-10-09T12:59:08.976Z,0.68
2023-10-09T13:01:45.339Z,1.00
2023-10-09T13:04:16.660Z,0.65
2023-10-09T13:06:47.404Z,0.70
2023-10-09T13:09:37.137Z,0.93
2023-10-09T13:12:05.622Z,0.70
2023-10-09T13:14:36.516Z,0.57
2023-10-09T13:17:11.001Z,0.60
2023-10-09T13:19:39.498Z,1.00
2023-10-09T13:22:14.491Z,0.80
2023-10-09T13:24:43.098Z,0.50
2023-10-09T13:27:11.844Z,0.65
2023-10-09T13:29:42.720Z,0.60
2023-10-09T13:32:16.135Z,0.70
2023-10-09T13:34:47.981Z,0.85
2023-10-09T13:37:15.193Z,0.98
2023-10-09T13:39:53.743Z,0.98
2023-10-09T13:42:26.025Z,0.70
2023-10-09T13:44:56.669Z,0.73
2023-10-09T13:47:33.165Z,0.77
2023-10-09T13:50:01.797Z,0.90
2023-10-09T13:52:32.099Z,0.85
2023-10-09T13:55:16.948Z,0.70
2023-10-09T13:57:46.574Z,0.68
2023-10-09T14:00:20.695Z,0.80
2023-10-09T14:02:48.436Z,0.77
2023-10-09T14:05:16.467Z,0.60
2023-10-09T14:07:44.041Z,0.73
2023-10-09T14:10:26.969Z,0.98
2023-10-09T14:12:55.448Z,0.60
2023-10-09T14:15:26.029Z,0.75
2023-10-09T14:17:57.615Z,0.70
2023-10-09T14:20:31.709Z,1.15
2023-10-09T14:23:07.548Z,1.00
2023-10-09T14:25:38.791Z,0.70
2023-10-09T14:28:10.777Z,0.90
2023-10-09T14:30:45.198Z,0.70
2023-10-09T14:33:24.115Z,0.90
2023-10-09T14:35:53.479Z,0.75
2023-10-09T14:38:23.172Z,0.60
2023-10-09T14:41:00.903Z,0.60
2023-10-09T14:43:35.102Z,1.02
2023-10-09T14:46:02.359Z,0.88
2023-10-09T14:48:30.375Z,0.93
2023-10-09T14:51:06.269Z,0.98
2023-10-09T14:53:35.479Z,0.90
2023-10-09T14:56:04.707Z,0.77
2023-10-09T14:58:34.261Z,1.00
2023-10-09T15:01:14.180Z,1.00
2023-10-09T15:03:41.681Z,0.57
2023-10-09T15:06:12.397Z,0.60
2023-10-09T15:08:39.434Z,0.70
2023-10-09T15:11:07.546Z,0.65
2023-10-09T15:13:40.825Z,0.77
2023-10-09T15:16:08.265Z,0.70
2023-10-09T15:18:38.522Z,0.65
2023-10-09T15:21:07.363Z,0.70
2023-10-09T15:23:34.392Z,0.85
2023-10-09T15:26:02.635Z,0.82
2023-10-09T15:28:33.832Z,0.60
2023-10-09T15:31:05.282Z,0.90
2023-10-09T15:36:14.378Z,0.80
2023-10-09T15:38:41.708Z,1.10
2023-10-09T15:41:08.716Z,0.90
2023-10-09T15:43:39.806Z,0.93
2023-10-09T15:46:18.259Z,0.75
2023-10-09T15:48:47.398Z,0.88
2023-10-09T15:51:15.664Z,0.55
2023-10-09T15:53:45.151Z,0.95
2023-10-09T15:56:19.234Z,0.77
2023-10-09T15:58:47.601Z,0.85
2023-10-09T16:01:16.046Z,0.73
2023-10-09T16:03:51.339Z,0.82
2023-10-09T16:06:19.525Z,0.80
2023-10-09T16:08:51.633Z,0.90
2023-10-09T16:11:26.233Z,0.88
2023-10-09T16:13:57.353Z,1.00
2023-10-09T16:16:29.913Z,1.20
2023-10-09T16:18:58.916Z,1.08
2023-10-09T16:21:26.280Z,0.90
2023-10-09T16:23:55.058Z,1.20
2023-10-09T16:26:25.899Z,1.65
2023-10-09T16:28:58.627Z,1.33
2023-10-09T16:31:27.344Z,1.30
2023-10-09T16:33:55.790Z,1.20
2023-10-09T16:36:23.782Z,1.20
2023-10-09T16:38:53.009Z,1.20
2023-10-09T16:41:20.019Z,1.13
2023-10-09T16:43:50.869Z,1.05
2023-10-09T16:46:18.510Z,1.45
2023-10-09T16:48:47.426Z,1.50
2023-10-09T16:51:23.068Z,1.33
2023-10-09T16:53:53.445Z,1.30
2023-10-09T16:56:21.142Z,1.10
2023-10-09T16:58:50.013Z,1.45
2023-10-09T17:01:22.417Z,1.83
2023-10-09T17:03:56.500Z,1.65
2023-10-09T17:06:30.295Z,2.00
2023-10-09T17:08:58.367Z,3.10
2023-10-09T17:11:25.896Z,2.17
2023-10-09T17:13:59.101Z,2.90
2023-10-09T17:16:26.331Z,2.97
2023-10-09T17:18:56.987Z,2.70
2023-10-09T17:21:25.288Z,2.97
2023-10-09T17:23:56.396Z,3.00
2023-10-09T17:26:26.244Z,2.83
2023-10-09T17:28:53.636Z,3.40
2023-10-09T17:31:24.759Z,3.13
2023-10-09T17:33:55.218Z,3.60
2023-10-09T17:36:25.394Z,3.80
2023-10-09T17:38:52.564Z,3.40
2023-10-09T17:41:22.479Z,2.45
2023-10-09T17:43:51.860Z,3.08
2023-10-09T17:46:19.647Z,3.10
2023-10-09T17:48:46.973Z,2.42
2023-10-09T17:51:16.250Z,3.40
2023-10-09T17:53:44.322Z,2.97
2023-10-09T17:56:11.706Z,1.70
2023-10-09T17:58:51.052Z,2.20
2023-10-09T18:01:20.398Z,2.13
2023-10-09T18:03:51.301Z,2.67
2023-10-09T18:06:20.002Z,2.30
2023-10-09T18:08:49.244Z,1.80
2023-10-09T18:11:16.431Z,2.15
2023-10-09T18:13:44.494Z,2.10
2023-10-09T18:16:18.427Z,1.80
2023-10-09T18:18:48.171Z,1.80
2023-10-09T18:21:20.705Z,1.88
2023-10-09T18:23:49.862Z,1.80
2023-10-09T18:26:20.893Z,1.73
2023-10-09T18:28:49.168Z,1.75
2023-10-09T18:31:17.849Z,1.70
2023-10-09T18:33:54.423Z,1.95
2023-10-09T18:36:29.988Z,1.50
2023-10-09T18:38:58.058Z,1.30
2023-10-09T18:41:28.163Z,1.90
2023-10-09T18:43:56.866Z,1.77
2023-10-09T18:46:27.514Z,1.48
2023-10-09T18:49:01.785Z,1.70
2023-10-09T18:51:33.568Z,1.58
2023-10-09T18:54:06.794Z,1.70
2023-10-09T18:56:34.204Z,1.33
2023-10-09T18:59:01.707Z,1.48
2023-10-09T19:01:30.444Z,1.20
2023-10-09T19:03:57.444Z,1.20
2023-10-09T19:06:25.329Z,1.45
2023-10-09T19:08:54.035Z,1.45
2023-10-09T19:11:23.551Z,1.50
2023-10-09T19:13:51.612Z,1.38
2023-10-09T19:16:18.971Z,1.52
2023-10-09T19:18:46.341Z,1.13
2023-10-09T19:21:15.682Z,1.10
2023-10-09T19:23:47.198Z,1.33
2023-10-09T19:26:18.654Z,1.35
2023-10-09T19:28:49.077Z,1.45
2023-10-09T19:31:17.346Z,1.33
2023-10-09T19:33:46.985Z,1.42
2023-10-09T19:36:19.967Z,1.40
2023-10-09T19:38:53.624Z,1.42
2023-10-09T19:41:32.270Z,1.50
2023-10-09T19:43:59.273Z,1.40
2023-10-09T19:46:29.749Z,1.50
2023-10-09T19:48:58.236Z,1.35
2023-10-09T19:51:25.336Z,1.15
2023-10-09T19:53:53.883Z,1.70
2023-10-09T19:56:23.528Z,2.35
2023-10-09T19:58:55.147Z,3.30
2023-10-09T20:01:27.466Z,2.55
2023-10-09T20:03:55.923Z,2.47
2023-10-09T20:06:25.998Z,2.70
2023-10-09T20:08:54.874Z,3.10
2023-10-09T20:11:26.231Z,2.67
2023-10-09T20:13:56.091Z,2.20
2023-10-09T20:16:27.625Z,2.15
2023-10-09T20:18:57.610Z,1.92
2023-10-09T20:21:24.825Z,2.08
2023-10-09T20:23:51.802Z,2.08
2023-10-09T20:26:18.955Z,2.75
2023-10-09T20:28:51.185Z,2.08
2023-10-09T20:31:21.812Z,1.75
2023-10-09T20:33:51.949Z,2.10
2023-10-09T20:36:20.385Z,2.03
2023-10-09T20:38:51.082Z,1.73
2023-10-09T20:41:18.631Z,2.05
2023-10-09T20:43:49.703Z,1.60
2023-10-09T20:46:17.481Z,2.08
2023-10-09T20:48:49.577Z,1.90
2023-10-09T20:51:17.117Z,1.85
2023-10-09T20:53:47.120Z,1.55
2023-10-09T20:56:14.588Z,1.50
2023-10-09T20:58:42.617Z,1.70
2023-10-09T21:01:18.020Z,2.00
2023-10-09T21:03:51.911Z,1.50
2023-10-09T21:06:25.101Z,1.70
2023-10-09T21:08:52.456Z,1.60
2023-10-09T21:11:20.335Z,1.70
2023-10-09T21:13:48.555Z,1.40
2023-10-09T21:16:16.989Z,1.80
2023-10-09T21:18:45.638Z,1.40
2023-10-09T21:21:16.901Z,1.88
2023-10-09T21:23:45.315Z,1.20
2023-10-09T21:26:23.942Z,1.50
2023-10-09T21:28:53.382Z,1.48
2023-10-09T21:31:23.294Z,1.20
2023-10-09T21:33:53.960Z,1.23
2023-10-09T21:36:21.365Z,1.10
2023-10-09T21:38:48.705Z,0.98
2023-10-09T21:41:18.957Z,1.33
2023-10-09T21:43:47.482Z,1.35
2023-10-09T21:46:16.601Z,1.08
2023-10-09T21:48:44.992Z,1.23
2023-10-09T21:51:17.827Z,1.20
2023-10-09T21:53:48.541Z,1.40
2023-10-09T21:56:19.760Z,1.10
2023-10-09T21:58:46.785Z,1.20
2023-10-09T22:01:20.649Z,1.10
2023-10-09T22:03:49.422Z,1.00
2023-10-09T22:06:16.591Z,1.13
2023-10-09T22:08:46.125Z,0.90
2023-10-09T22:11:14.150Z,1.00
2023-10-09T22:13:41.329Z,1.08
2023-10-09T22:16:08.649Z,1.20
2023-10-09T22:18:41.724Z,0.90
2023-10-09T22:21:12.302Z,1.05
2023-10-09T22:23:54.299Z,1.20
2023-10-09T22:26:21.532Z,1.10
2023-10-09T22:28:49.613Z,1.10
2023-10-09T22:31:17.122Z,1.00
2023-10-09T22:33:50.766Z,1.13
2023-10-09T22:36:42.221Z,0.98
2023-10-09T22:39:22.857Z,1.42
2023-10-09T22:41:55.941Z,1.20
2023-10-09T22:44:29.108Z,1.20
2023-10-09T22:47:01.189Z,1.10
2023-10-09T22:49:35.346Z,1.45
2023-10-09T22:52:15.738Z,1.08
2023-10-09T22:54:50.142Z,1.05
2023-10-09T22:57:17.975Z,1.17
2023-10-09T22:59:51.713Z,1.38
2023-10-09T23:02:44.716Z,1.40
2023-10-09T23:05:18.755Z,1.20
2023-10-09T23:08:00.184Z,1.30
2023-10-09T23:10:28.480Z,1.30
2023-10-09T23:13:15.899Z,1.10
2023-10-09T23:15:50.803Z,1.20
2023-10-09T23:18:33.482Z,1.10
2023-10-09T23:21:22.557Z,1.30
2023-10-09T23:23:58.139Z,1.40
2023-10-09T23:26:30.593Z,1.73
2023-10-09T23:29:10.031Z,1.00
2023-10-09T23:31:47.901Z,1.10
2023-10-09T23:34:21.106Z,1.05
2023-10-09T23:36:49.230Z,1.40
2023-10-09T23:39:36.630Z,1.48
2023-10-09T23:42:15.987Z,1.20
2023-10-09T23:44:44.085Z,1.20
2023-10-09T23:47:17.950Z,1.13
2023-10-09T23:49:45.537Z,0.80
2023-10-09T23:52:15.998Z,1.20
2023-10-09T23:54:49.009Z,1.00
2023-10-09T23:57:19.591Z,0.80
2023-10-09T23:59:55.470Z,1.05
